createdAt,value
2023-03-20T00:01:00.128Z,36.27
2023-03-20T00:02:05.815Z,32.00
2023-03-20T00:03:11.711Z,35.70
2023-03-20T00:04:15.405Z,34.50
2023-03-20T00:05:24.300Z,36.00
2023-03-20T00:06:28.472Z,34.60
2023-03-20T00:07:30.901Z,33.50
2023-03-20T00:08:36.778Z,35.60
2023-03-20T00:09:40.755Z,32.90
2023-03-20T00:10:46.503Z,33.10
2023-03-20T00:11:54.208Z,31.80
2023-03-20T00:12:57.964Z,34.30
2023-03-20T00:14:07.832Z,33.50
2023-03-20T00:15:29.961Z,30.30
2023-03-20T00:17:58.780Z,3.10
2023-03-20T00:19:05.839Z,32.20
2023-03-20T00:20:15.665Z,34.20
2023-03-20T00:21:25.149Z,32.60
2023-03-20T00:22:24.459Z,31.60
2023-03-20T00:23:29.801Z,30.50
2023-03-20T00:24:36.828Z,31.50
2023-03-20T00:25:41.311Z,31.80
2023-03-20T00:26:46.369Z,30.10
2023-03-20T00:27:51.345Z,32.10
2023-03-20T00:28:55.013Z,31.20
2023-03-20T00:29:58.219Z,32.00
2023-03-20T00:31:00.441Z,31.80
2023-03-20T00:32:04.222Z,30.60
2023-03-20T00:33:11.077Z,30.60
2023-03-20T00:34:17.862Z,20.50
2023-03-20T00:35:28.325Z,30.90
2023-03-20T00:36:33.858Z,29.80
2023-03-20T00:37:35.982Z,31.80
2023-03-20T00:38:38.140Z,29.10
2023-03-20T00:39:40.730Z,27.80
2023-03-20T00:40:43.480Z,30.50
2023-03-20T00:42:01.605Z,32.40
2023-03-20T00:43:04.320Z,26.00
2023-03-20T00:44:31.353Z,29.50
2023-03-20T00:45:35.676Z,28.00
2023-03-20T00:46:39.730Z,30.80
2023-03-20T00:47:45.862Z,28.00
2023-03-20T00:48:51.287Z,26.40
2023-03-20T00:49:56.254Z,26.10
2023-03-20T00:50:59.081Z,28.50
2023-03-20T00:52:03.777Z,29.50
2023-03-20T00:53:11.984Z,27.10
2023-03-20T00:54:18.401Z,27.30
2023-03-20T00:55:25.322Z,26.20
2023-03-20T00:56:39.559Z,27.50
2023-03-20T00:57:46.350Z,27.30
2023-03-20T00:58:49.336Z,26.30
2023-03-20T01:00:02.550Z,30.82
2023-03-20T01:01:05.358Z,28.40
2023-03-20T01:02:11.879Z,33.40
2023-03-20T01:03:20.429Z,32.50
2023-03-20T01:05:52.230Z,36.40
2023-03-20T01:06:55.206Z,32.10
2023-03-20T01:07:57.210Z,35.70
2023-03-20T01:09:02.268Z,33.90
2023-03-20T01:10:05.935Z,33.40
2023-03-20T01:11:12.941Z,34.50
2023-03-20T01:12:17.142Z,34.70
2023-03-20T01:13:32.241Z,33.40
2023-03-20T01:14:34.778Z,30.50
2023-03-20T01:15:37.189Z,32.90
2023-03-20T01:16:40.024Z,30.91
2023-03-20T01:17:43.088Z,33.00
2023-03-20T01:18:45.647Z,24.20
2023-03-20T01:19:48.141Z,32.40
2023-03-20T01:20:52.712Z,30.20
2023-03-20T01:23:09.488Z,32.40
2023-03-20T01:24:11.827Z,33.09
2023-03-20T01:25:13.959Z,32.89
2023-03-20T01:26:23.904Z,38.80
2023-03-20T01:27:26.349Z,34.50
2023-03-20T01:28:33.480Z,41.00
2023-03-20T01:29:35.894Z,40.00
2023-03-20T01:30:39.044Z,37.80
2023-03-20T01:31:41.950Z,41.60
2023-03-20T01:32:44.226Z,40.40
2023-03-20T01:33:47.030Z,40.00
2023-03-20T01:34:49.317Z,41.40
2023-03-20T01:35:52.437Z,43.70
2023-03-20T01:36:58.085Z,43.50
2023-03-20T01:38:01.035Z,42.40
2023-03-20T01:39:03.932Z,44.10
2023-03-20T01:40:10.926Z,44.00
2023-03-20T01:41:16.769Z,43.30
2023-03-20T01:42:23.809Z,43.10
2023-03-20T01:43:27.687Z,41.90
2023-03-20T01:44:33.548Z,44.50
2023-03-20T01:45:38.180Z,42.60
2023-03-20T01:46:41.646Z,41.50
2023-03-20T01:47:49.053Z,41.60
2023-03-20T01:49:02.116Z,43.80
2023-03-20T01:50:30.368Z,40.80
2023-03-20T01:51:34.930Z,38.20
2023-03-20T01:52:43.197Z,39.90
2023-03-20T01:55:06.787Z,40.40
2023-03-20T01:56:12.643Z,38.90
2023-03-20T01:57:25.953Z,39.10
2023-03-20T01:58:32.818Z,36.70
2023-03-20T02:01:07.324Z,37.70
2023-03-20T02:02:13.396Z,32.00
2023-03-20T02:03:18.145Z,37.70
2023-03-20T02:04:44.012Z,35.00
2023-03-20T02:05:48.839Z,35.70
2023-03-20T02:06:51.420Z,37.91
2023-03-20T02:08:25.154Z,35.40
2023-03-20T02:09:29.345Z,33.20
2023-03-20T02:10:34.845Z,34.30
2023-03-20T02:11:44.314Z,34.80
2023-03-20T02:12:48.042Z,34.10
2023-03-20T02:13:55.790Z,37.00
2023-03-20T02:14:59.124Z,35.50
2023-03-20T02:16:06.834Z,35.70
2023-03-20T02:17:27.510Z,34.80
2023-03-20T02:18:35.114Z,32.40
2023-03-20T02:20:05.775Z,34.00
2023-03-20T02:21:23.673Z,33.40
2023-03-20T02:22:49.719Z,35.80
2023-03-20T02:24:17.841Z,34.80
2023-03-20T02:25:24.208Z,34.40
2023-03-20T02:26:47.331Z,33.30
2023-03-20T02:28:19.214Z,33.00
2023-03-20T02:29:54.463Z,34.40
2023-03-20T02:31:29.303Z,33.40
2023-03-20T02:32:45.664Z,37.90
2023-03-20T02:34:00.607Z,37.70
2023-03-20T02:35:24.860Z,37.00
2023-03-20T02:36:40.338Z,39.00
2023-03-20T02:37:52.091Z,38.40
2023-03-20T02:38:57.893Z,39.60
2023-03-20T02:40:03.916Z,41.60
2023-03-20T02:41:09.729Z,40.90
2023-03-20T02:43:53.465Z,38.10
2023-03-20T02:45:14.603Z,35.00
2023-03-20T02:46:20.703Z,40.10
2023-03-20T02:47:29.708Z,40.70
2023-03-20T02:48:45.726Z,40.60
2023-03-20T02:51:26.271Z,42.50
2023-03-20T02:52:35.202Z,37.90
2023-03-20T02:53:59.508Z,41.40
2023-03-20T02:56:22.553Z,42.80
2023-03-20T02:59:18.640Z,44.70
2023-03-20T03:00:33.621Z,45.00
2023-03-20T03:03:02.534Z,42.80
2023-03-20T03:04:08.447Z,44.00
2023-03-20T03:05:16.955Z,41.70
2023-03-20T03:06:30.518Z,41.80
2023-03-20T03:07:35.928Z,42.00
2023-03-20T03:08:41.822Z,39.60
2023-03-20T03:09:48.185Z,39.20
2023-03-20T03:10:57.138Z,37.70
2023-03-20T03:13:20.022Z,40.50
2023-03-20T03:14:40.836Z,39.30
2023-03-20T03:15:48.442Z,36.70
2023-03-20T03:16:54.229Z,40.80
2023-03-20T03:17:59.510Z,40.00
2023-03-20T03:19:15.138Z,39.70
2023-03-20T03:20:32.555Z,36.70
2023-03-20T03:21:39.596Z,35.80
2023-03-20T03:22:42.092Z,37.90
2023-03-20T03:23:48.508Z,38.60
2023-03-20T03:24:53.051Z,38.00
2023-03-20T03:25:57.888Z,39.60
2023-03-20T03:28:29.048Z,40.80
2023-03-20T03:29:34.938Z,40.40
2023-03-20T03:30:39.265Z,42.70
2023-03-20T03:31:44.087Z,41.60
2023-03-20T03:34:12.782Z,42.00
2023-03-20T03:35:18.522Z,42.70
2023-03-20T03:36:26.925Z,44.40
2023-03-20T03:38:01.986Z,43.50
2023-03-20T03:39:36.928Z,42.40
2023-03-20T03:40:51.290Z,42.90
2023-03-20T03:41:57.148Z,43.90
2023-03-20T03:43:14.170Z,43.90
2023-03-20T03:45:59.346Z,46.00
2023-03-20T03:47:11.152Z,44.40
2023-03-20T03:48:21.885Z,46.40
2023-03-20T03:50:47.461Z,38.50
2023-03-20T03:51:53.511Z,47.60
2023-03-20T03:52:58.587Z,47.70
2023-03-20T03:54:10.265Z,45.90
2023-03-20T03:55:22.552Z,45.70
2023-03-20T03:57:45.335Z,41.00
2023-03-20T03:58:53.013Z,43.10
2023-03-20T03:59:57.933Z,46.00
2023-03-20T04:01:03.728Z,42.80
2023-03-20T04:02:08.030Z,44.40
2023-03-20T04:03:11.876Z,43.50
2023-03-20T04:04:15.183Z,43.90
2023-03-20T04:05:20.508Z,45.64
2023-03-20T04:06:25.392Z,43.70
2023-03-20T04:07:27.794Z,44.80
2023-03-20T04:08:30.736Z,42.80
2023-03-20T04:09:34.758Z,43.60
2023-03-20T04:10:37.164Z,45.40
2023-03-20T04:11:39.760Z,44.50
2023-03-20T04:12:44.730Z,44.50
2023-03-20T04:13:49.236Z,44.90
2023-03-20T04:14:51.868Z,44.40
2023-03-20T04:15:56.565Z,45.50
2023-03-20T04:17:01.310Z,46.90
2023-03-20T04:18:04.854Z,45.55
2023-03-20T04:19:07.050Z,45.60
2023-03-20T04:20:12.068Z,44.20
2023-03-20T04:21:15.945Z,43.70
2023-03-20T04:22:18.982Z,44.70
2023-03-20T04:23:21.634Z,43.70
2023-03-20T04:24:24.292Z,45.50
2023-03-20T04:25:26.593Z,44.90
2023-03-20T04:26:30.556Z,46.20
2023-03-20T04:27:33.144Z,44.00
2023-03-20T04:28:36.569Z,46.40
2023-03-20T04:29:58.703Z,46.30
2023-03-20T04:31:19.792Z,46.90
2023-03-20T04:32:40.350Z,47.30
2023-03-20T04:33:48.033Z,47.70
2023-03-20T04:36:21.294Z,47.70
2023-03-20T04:37:24.600Z,46.90
2023-03-20T04:38:28.717Z,46.70
2023-03-20T04:39:31.487Z,46.00
2023-03-20T04:40:33.769Z,47.40
2023-03-20T04:41:36.012Z,45.56
2023-03-20T04:42:39.509Z,45.90
2023-03-20T04:43:41.818Z,46.30
2023-03-20T04:44:43.950Z,39.00
2023-03-20T04:45:46.600Z,38.89
2023-03-20T04:46:49.324Z,51.40
2023-03-20T04:47:52.179Z,51.55
2023-03-20T04:48:56.197Z,52.90
2023-03-20T04:50:00.390Z,52.50
2023-03-20T04:51:03.584Z,57.55
2023-03-20T04:52:07.806Z,60.30
2023-03-20T04:53:12.446Z,62.00
2023-03-20T04:54:14.742Z,55.40
2023-03-20T04:55:18.084Z,72.70
2023-03-20T04:56:20.417Z,87.90
2023-03-20T04:57:24.964Z,111.20
2023-03-20T04:58:29.136Z,119.70
2023-03-20T04:59:32.665Z,109.00
2023-03-20T05:00:35.200Z,120.30
2023-03-20T05:01:37.904Z,119.00
2023-03-20T05:02:40.191Z,122.70
2023-03-20T05:03:43.651Z,115.70
2023-03-20T05:04:46.750Z,108.60
2023-03-20T05:05:50.336Z,107.40
2023-03-20T05:06:52.726Z,102.50
2023-03-20T05:07:56.945Z,94.70
2023-03-20T05:09:01.749Z,91.10
2023-03-20T05:10:06.790Z,93.30
2023-03-20T05:11:11.042Z,93.70
2023-03-20T05:12:27.020Z,86.30
2023-03-20T05:13:34.913Z,87.60
2023-03-20T05:16:07.614Z,80.40
2023-03-20T05:17:14.586Z,54.50
2023-03-20T05:18:18.715Z,69.70
2023-03-20T05:19:39.187Z,71.20
2023-03-20T05:20:55.354Z,68.70
2023-03-20T05:23:25.007Z,77.50
2023-03-20T05:24:29.119Z,72.30
2023-03-20T05:25:36.759Z,73.90
2023-03-20T05:26:53.502Z,68.80
2023-03-20T05:28:03.926Z,76.00
2023-03-20T05:29:08.045Z,54.60
2023-03-20T05:30:14.949Z,69.60
2023-03-20T05:32:39.021Z,72.80
2023-03-20T05:33:50.260Z,72.10
2023-03-20T05:35:12.116Z,67.30
2023-03-20T05:36:19.356Z,57.50
2023-03-20T05:37:24.210Z,55.00
2023-03-20T05:38:34.170Z,55.60
2023-03-20T05:39:47.560Z,54.50
2023-03-20T05:40:57.943Z,55.40
2023-03-20T05:42:14.471Z,54.60
2023-03-20T05:43:25.662Z,56.40
2023-03-20T05:44:42.305Z,51.40
2023-03-20T05:45:46.616Z,56.60
2023-03-20T05:47:00.297Z,58.50
2023-03-20T05:48:19.961Z,54.80
2023-03-20T05:50:40.696Z,52.50
2023-03-20T05:53:10.073Z,54.20
2023-03-20T05:54:14.810Z,51.20
2023-03-20T05:56:31.485Z,52.80
2023-03-20T05:57:48.941Z,51.60
2023-03-20T05:58:56.124Z,48.60
2023-03-20T06:00:19.397Z,51.80
2023-03-20T06:01:22.056Z,51.10
2023-03-20T06:02:28.936Z,52.80
2023-03-20T06:03:33.110Z,51.40
2023-03-20T06:04:40.034Z,50.70
2023-03-20T06:05:49.688Z,49.60
2023-03-20T06:06:51.900Z,49.00
2023-03-20T06:07:54.253Z,50.40
2023-03-20T06:08:56.434Z,51.30
2023-03-20T06:09:58.734Z,51.20
2023-03-20T06:11:02.439Z,51.30
2023-03-20T06:12:06.067Z,51.30
2023-03-20T06:13:08.262Z,51.60
2023-03-20T06:14:10.945Z,53.00
2023-03-20T06:15:15.090Z,53.40
2023-03-20T06:16:19.345Z,50.90
2023-03-20T06:17:23.451Z,52.70
2023-03-20T06:18:27.593Z,52.90
2023-03-20T06:19:30.366Z,52.00
2023-03-20T06:20:32.962Z,49.30
2023-03-20T06:21:37.075Z,48.00
2023-03-20T06:22:39.376Z,50.50
2023-03-20T06:23:42.552Z,51.70
2023-03-20T06:24:44.687Z,50.50
2023-03-20T06:25:47.144Z,51.10
2023-03-20T06:26:50.440Z,51.10
2023-03-20T06:27:54.006Z,51.60
2023-03-20T06:28:56.396Z,53.60
2023-03-20T06:29:59.163Z,52.80
2023-03-20T06:31:03.341Z,53.20
2023-03-20T06:32:09.073Z,47.40
2023-03-20T06:33:11.378Z,49.90
2023-03-20T06:34:16.099Z,53.90
2023-03-20T06:35:20.302Z,51.20
2023-03-20T06:36:24.373Z,54.50
2023-03-20T06:37:29.096Z,51.50
2023-03-20T06:38:33.784Z,53.10
2023-03-20T06:39:37.906Z,55.20
2023-03-20T06:40:41.461Z,50.10
2023-03-20T06:41:43.940Z,54.50
2023-03-20T06:42:46.051Z,54.80
2023-03-20T06:43:50.518Z,55.09
2023-03-20T06:44:53.580Z,55.20
2023-03-20T06:46:05.278Z,51.30
2023-03-20T06:47:08.575Z,53.60
2023-03-20T06:48:10.780Z,54.00
2023-03-20T06:49:14.141Z,57.00
2023-03-20T06:50:16.634Z,54.20
2023-03-20T06:51:19.479Z,52.91
2023-03-20T06:52:23.612Z,53.20
2023-03-20T06:53:28.678Z,54.30
2023-03-20T06:54:39.080Z,53.70
2023-03-20T06:55:42.452Z,53.90
2023-03-20T06:56:46.030Z,52.50
2023-03-20T06:57:48.796Z,49.50
2023-03-20T06:58:52.871Z,54.20
2023-03-20T06:59:54.973Z,52.00
2023-03-20T07:00:57.600Z,54.67
2023-03-20T07:02:00.694Z,50.90
2023-03-20T07:03:03.875Z,54.40
2023-03-20T07:04:08.375Z,50.82
2023-03-20T07:05:12.676Z,51.00
2023-03-20T07:06:16.638Z,52.00
2023-03-20T07:07:19.700Z,53.10
2023-03-20T07:08:22.415Z,51.80
2023-03-20T07:09:25.358Z,49.70
2023-03-20T07:10:27.649Z,52.80
2023-03-20T07:11:31.389Z,51.80
2023-03-20T07:12:33.696Z,52.00
2023-03-20T07:13:37.857Z,51.30
2023-03-20T07:14:42.705Z,52.00
2023-03-20T07:16:02.996Z,36.40
2023-03-20T07:16:54.085Z,51.70
2023-03-20T07:17:56.622Z,51.18
2023-03-20T07:19:00.759Z,49.20
2023-03-20T07:20:05.379Z,50.00
2023-03-20T07:21:07.860Z,51.10
2023-03-20T07:22:23.545Z,51.20
2023-03-20T07:23:26.101Z,51.10
2023-03-20T07:24:28.469Z,52.60
2023-03-20T07:25:42.162Z,51.60
2023-03-20T07:26:37.374Z,49.70
2023-03-20T07:27:40.572Z,47.70
2023-03-20T07:28:42.733Z,50.60
2023-03-20T07:29:46.897Z,50.90
2023-03-20T07:30:51.902Z,51.90
2023-03-20T07:31:54.363Z,51.00
2023-03-20T07:32:59.216Z,51.40
2023-03-20T07:34:03.349Z,49.40
2023-03-20T07:35:08.169Z,50.20
2023-03-20T07:36:13.355Z,46.30
2023-03-20T07:37:16.527Z,46.90
2023-03-20T07:38:24.380Z,49.90
2023-03-20T07:39:28.585Z,50.00
2023-03-20T07:40:35.592Z,45.40
2023-03-20T07:41:39.702Z,48.00
2023-03-20T07:42:45.012Z,43.30
2023-03-20T07:43:49.741Z,49.50
2023-03-20T07:44:56.954Z,49.20
2023-03-20T07:46:03.518Z,50.50
2023-03-20T07:47:08.701Z,47.20
2023-03-20T07:48:12.004Z,47.20
2023-03-20T07:49:17.007Z,48.45
2023-03-20T07:50:21.005Z,45.90
2023-03-20T07:51:31.449Z,47.90
2023-03-20T07:52:35.014Z,45.70
2023-03-20T07:53:40.281Z,46.20
2023-03-20T07:54:42.671Z,46.80
2023-03-20T07:55:44.936Z,44.90
2023-03-20T07:56:50.123Z,43.70
2023-03-20T07:57:52.423Z,45.70
2023-03-20T07:58:57.716Z,44.80
2023-03-20T08:00:05.799Z,41.90
2023-03-20T08:01:11.324Z,43.90
2023-03-20T08:02:17.871Z,41.50
2023-03-20T08:03:21.356Z,43.50
2023-03-20T08:04:24.647Z,39.30
2023-03-20T08:05:27.088Z,41.00
2023-03-20T08:06:38.510Z,39.80
2023-03-20T08:07:42.764Z,39.00
2023-03-20T08:08:48.432Z,38.10
2023-03-20T08:09:56.788Z,38.40
2023-03-20T08:11:01.901Z,37.70
2023-03-20T08:12:09.064Z,34.10
2023-03-20T08:13:13.209Z,36.10
2023-03-20T08:14:17.320Z,36.70
2023-03-20T08:15:21.128Z,36.10
2023-03-20T08:16:29.518Z,35.20
2023-03-20T08:17:31.906Z,34.60
2023-03-20T08:18:34.221Z,31.50
2023-03-20T08:19:36.295Z,33.80
2023-03-20T08:20:42.233Z,33.70
2023-03-20T08:21:45.040Z,30.90
2023-03-20T08:22:47.933Z,32.20
2023-03-20T08:23:50.480Z,31.60
2023-03-20T08:24:59.714Z,31.20
2023-03-20T08:26:02.164Z,30.20
2023-03-20T08:27:06.896Z,30.40
2023-03-20T08:28:10.109Z,29.64
2023-03-20T08:29:12.517Z,31.90
2023-03-20T08:30:15.250Z,31.80
2023-03-20T08:31:17.989Z,28.80
2023-03-20T08:32:20.244Z,29.30
2023-03-20T08:33:23.049Z,25.30
2023-03-20T08:34:27.173Z,19.90
2023-03-20T08:35:33.468Z,25.80
2023-03-20T08:36:38.438Z,25.10
2023-03-20T08:37:42.218Z,23.40
2023-03-20T08:38:44.448Z,28.00
2023-03-20T08:39:47.286Z,27.40
2023-03-20T08:40:53.363Z,25.40
2023-03-20T08:42:04.390Z,26.90
2023-03-20T08:43:09.296Z,27.80
2023-03-20T08:44:14.510Z,25.80
2023-03-20T08:45:17.689Z,24.70
2023-03-20T08:46:19.925Z,26.80
2023-03-20T08:47:22.338Z,25.90
2023-03-20T08:48:25.051Z,24.50
2023-03-20T08:49:27.399Z,25.80
2023-03-20T08:50:31.218Z,22.55
2023-03-20T08:51:33.967Z,24.40
2023-03-20T08:52:36.951Z,21.60
2023-03-20T08:53:39.861Z,19.00
2023-03-20T08:54:42.524Z,21.80
2023-03-20T08:55:49.853Z,23.90
2023-03-20T08:56:56.642Z,22.70
2023-03-20T08:58:03.400Z,13.40
2023-03-20T08:59:05.578Z,25.30
2023-03-20T09:00:11.781Z,21.00
2023-03-20T09:01:14.512Z,19.60
2023-03-20T09:02:17.480Z,21.30
2023-03-20T09:03:23.636Z,24.20
2023-03-20T09:04:27.565Z,24.10
2023-03-20T09:05:34.745Z,21.50
2023-03-20T09:06:37.291Z,22.90
2023-03-20T09:10:54.930Z,25.20
2023-03-20T09:11:58.024Z,22.50
2023-03-20T09:13:49.986Z,22.50
2023-03-20T09:15:06.005Z,21.60
2023-03-20T09:16:09.594Z,21.10
2023-03-20T09:17:11.919Z,18.60
2023-03-20T09:18:14.604Z,19.80
2023-03-20T09:19:18.743Z,20.40
2023-03-20T09:20:22.028Z,20.30
2023-03-20T09:21:25.706Z,18.90
2023-03-20T09:22:28.498Z,20.10
2023-03-20T09:23:30.709Z,18.80
2023-03-20T09:24:32.843Z,20.56
2023-03-20T09:25:35.316Z,21.40
2023-03-20T09:26:40.492Z,19.70
2023-03-20T09:27:43.322Z,19.40
2023-03-20T09:28:45.430Z,24.09
2023-03-20T09:29:49.586Z,21.40
2023-03-20T09:31:00.607Z,22.10
2023-03-20T09:32:02.868Z,24.80
2023-03-20T09:33:05.857Z,22.60
2023-03-20T09:34:08.160Z,21.90
2023-03-20T09:35:10.342Z,21.50
2023-03-20T09:36:13.652Z,19.70
2023-03-20T09:37:15.650Z,19.30
2023-03-20T09:38:18.248Z,19.33
2023-03-20T09:39:22.460Z,17.40
2023-03-20T09:40:46.063Z,18.00
2023-03-20T09:41:57.153Z,16.10
2023-03-20T09:43:09.312Z,16.70
2023-03-20T09:44:25.997Z,18.00
2023-03-20T09:45:49.352Z,17.40
2023-03-20T09:47:23.915Z,15.40
2023-03-20T09:50:20.840Z,17.20
2023-03-20T09:53:23.989Z,16.10
2023-03-20T09:54:58.169Z,16.40
2023-03-20T09:56:05.178Z,12.40
2023-03-20T09:58:37.802Z,15.80
2023-03-20T09:59:42.421Z,15.90
2023-03-20T10:00:46.240Z,14.40
2023-03-20T10:01:52.429Z,13.80
2023-03-20T10:03:08.171Z,11.10
2023-03-20T10:04:13.565Z,10.90
2023-03-20T10:05:33.042Z,13.50
2023-03-20T10:06:41.808Z,12.30
2023-03-20T10:07:45.497Z,11.50
2023-03-20T10:08:50.713Z,12.60
2023-03-20T10:09:54.488Z,13.64
2023-03-20T10:11:09.522Z,13.20
2023-03-20T10:12:41.454Z,12.30
2023-03-20T10:14:05.669Z,11.60
2023-03-20T10:15:11.502Z,12.90
2023-03-20T10:16:30.064Z,11.70
2023-03-20T10:17:46.432Z,12.00
2023-03-20T10:19:07.656Z,12.00
2023-03-20T10:20:38.312Z,13.10
2023-03-20T10:21:48.245Z,11.70
2023-03-20T10:24:20.891Z,13.10
2023-03-20T10:25:47.156Z,13.50
2023-03-20T10:26:57.314Z,12.90
2023-03-20T10:28:06.265Z,12.30
2023-03-20T10:29:28.617Z,13.60
2023-03-20T10:31:02.536Z,13.00
2023-03-20T10:34:22.360Z,13.70
2023-03-20T10:37:35.384Z,16.70
2023-03-20T10:38:44.908Z,13.10
2023-03-20T10:40:12.194Z,12.00
2023-03-20T10:41:22.740Z,11.50
2023-03-20T10:42:35.853Z,10.90
2023-03-20T10:43:43.050Z,11.40
2023-03-20T10:44:47.384Z,11.10
2023-03-20T10:46:14.637Z,11.10
2023-03-20T10:47:21.046Z,9.80
2023-03-20T10:48:39.888Z,11.10
2023-03-20T10:49:51.320Z,10.40
2023-03-20T10:52:17.575Z,12.30
2023-03-20T10:54:41.106Z,13.70
2023-03-20T10:55:45.079Z,12.30
2023-03-20T10:56:49.973Z,11.30
2023-03-20T10:58:10.223Z,12.50
2023-03-20T10:59:19.093Z,10.60
2023-03-20T11:00:23.951Z,12.30
2023-03-20T11:01:26.614Z,11.80
2023-03-20T11:02:30.701Z,12.90
2023-03-20T11:03:33.724Z,12.40
2023-03-20T11:04:35.988Z,10.55
2023-03-20T11:05:39.454Z,11.20
2023-03-20T11:06:57.855Z,12.10
2023-03-20T11:10:37.310Z,13.80
2023-03-20T11:11:40.261Z,14.20
2023-03-20T11:12:44.556Z,13.10
2023-03-20T11:13:47.108Z,13.20
2023-03-20T11:14:49.606Z,12.40
2023-03-20T11:15:53.496Z,14.30
2023-03-20T11:16:59.428Z,14.50
2023-03-20T11:18:05.542Z,15.40
2023-03-20T11:19:10.426Z,17.60
2023-03-20T11:20:13.786Z,15.40
2023-03-20T11:22:33.757Z,17.00
2023-03-20T11:23:37.114Z,14.30
2023-03-20T11:24:45.309Z,16.60
2023-03-20T11:25:51.076Z,15.80
2023-03-20T11:26:55.443Z,15.40
2023-03-20T11:28:36.060Z,20.10
2023-03-20T11:29:40.502Z,15.10
2023-03-20T11:31:01.437Z,15.60
2023-03-20T11:31:46.885Z,14.40
2023-03-20T11:33:21.971Z,15.00
2023-03-20T11:34:26.781Z,15.40
2023-03-20T11:35:30.740Z,16.50
2023-03-20T11:36:34.236Z,17.10
2023-03-20T11:38:17.545Z,18.30
2023-03-20T11:40:33.656Z,17.90
2023-03-20T11:41:58.042Z,19.70
2023-03-20T11:43:03.904Z,16.40
2023-03-20T11:44:50.552Z,15.30
2023-03-20T11:46:00.795Z,14.50
2023-03-20T11:47:07.691Z,16.90
2023-03-20T11:51:24.467Z,17.40
2023-03-20T11:53:50.023Z,16.20
2023-03-20T11:55:28.382Z,18.40
2023-03-20T11:56:34.283Z,13.80
2023-03-20T11:57:39.666Z,15.50
2023-03-20T11:59:11.438Z,14.30
2023-03-20T12:00:23.792Z,13.60
2023-03-20T12:01:27.666Z,13.90
2023-03-20T12:02:30.599Z,12.00
2023-03-20T12:03:51.827Z,14.50
2023-03-20T12:06:15.624Z,13.90
2023-03-20T12:07:22.006Z,14.00
2023-03-20T12:08:27.800Z,11.30
2023-03-20T12:09:50.722Z,13.90
2023-03-20T12:10:59.225Z,10.80
2023-03-20T12:12:05.617Z,12.50
2023-03-20T12:13:23.159Z,13.00
2023-03-20T12:15:53.869Z,12.90
2023-03-20T12:18:30.551Z,13.10
2023-03-20T12:19:34.784Z,11.20
2023-03-20T12:20:46.633Z,10.50
2023-03-20T12:23:21.681Z,11.90
2023-03-20T12:24:39.419Z,9.60
2023-03-20T12:25:57.281Z,10.30
2023-03-20T12:27:12.579Z,10.60
2023-03-20T12:28:53.995Z,10.80
2023-03-20T12:30:06.003Z,10.40
2023-03-20T12:31:30.194Z,10.60
2023-03-20T12:32:53.131Z,11.00
2023-03-20T12:36:51.345Z,10.90
2023-03-20T12:38:15.235Z,10.60
2023-03-20T12:39:38.774Z,14.10
2023-03-20T12:40:58.450Z,11.10
2023-03-20T12:42:31.469Z,10.90
2023-03-20T12:43:54.548Z,9.30
2023-03-20T12:45:21.523Z,12.80
2023-03-20T12:46:36.880Z,10.10
2023-03-20T12:48:17.681Z,11.00
2023-03-20T12:49:41.359Z,10.60
2023-03-20T12:52:29.794Z,8.80
2023-03-20T12:54:05.715Z,12.20
2023-03-20T12:55:26.565Z,10.70
2023-03-20T12:56:32.546Z,9.70
2023-03-20T12:57:41.122Z,10.70
2023-03-20T12:59:08.325Z,11.10
2023-03-20T13:00:18.079Z,10.10
2023-03-20T13:01:37.496Z,11.50
2023-03-20T13:03:00.408Z,10.70
2023-03-20T13:04:33.211Z,11.60
2023-03-20T13:07:02.242Z,11.50
2023-03-20T13:08:32.421Z,11.80
2023-03-20T13:09:38.764Z,10.50
2023-03-20T13:13:08.778Z,14.90
2023-03-20T13:14:20.654Z,9.90
2023-03-20T13:17:03.235Z,11.30
2023-03-20T13:18:28.170Z,12.60
2023-03-20T13:19:43.385Z,12.20
2023-03-20T13:22:07.737Z,12.50
2023-03-20T13:23:31.492Z,13.30
2023-03-20T13:24:40.425Z,12.70
2023-03-20T13:25:58.613Z,12.60
2023-03-20T13:27:30.173Z,14.20
2023-03-20T13:28:54.752Z,10.40
2023-03-20T13:30:20.335Z,12.60
2023-03-20T13:31:31.761Z,12.60
2023-03-20T13:32:53.150Z,13.20
2023-03-20T13:34:10.765Z,11.70
2023-03-20T13:35:16.659Z,12.00
2023-03-20T13:36:29.311Z,14.80
2023-03-20T13:37:35.096Z,13.00
2023-03-20T13:40:26.208Z,15.70
2023-03-20T13:41:29.352Z,13.70
2023-03-20T13:42:47.112Z,11.00
2023-03-20T13:45:08.961Z,14.50
2023-03-20T13:46:23.462Z,15.70
2023-03-20T13:47:28.775Z,13.50
2023-03-20T13:50:25.580Z,17.60
2023-03-20T13:54:31.716Z,15.50
2023-03-20T13:55:47.372Z,14.80
2023-03-20T13:56:59.242Z,13.10
2023-03-20T13:58:27.569Z,15.00
2023-03-20T13:59:49.999Z,13.20
2023-03-20T14:01:19.137Z,13.90
2023-03-20T14:02:57.824Z,13.60
2023-03-20T14:04:02.056Z,13.00
2023-03-20T14:05:15.493Z,13.10
2023-03-20T14:06:33.241Z,13.00
2023-03-20T14:07:37.851Z,14.60
2023-03-20T14:10:19.300Z,15.50
2023-03-20T14:11:26.116Z,14.00
2023-03-20T14:12:31.793Z,14.40
2023-03-20T14:13:35.097Z,13.70
2023-03-20T14:14:56.115Z,13.90
2023-03-20T14:16:02.298Z,14.60
2023-03-20T14:20:40.776Z,14.20
2023-03-20T14:21:52.352Z,16.00
2023-03-20T14:23:16.025Z,15.10
2023-03-20T14:24:20.373Z,13.30
2023-03-20T14:25:23.783Z,14.60
2023-03-20T14:26:38.768Z,15.60
2023-03-20T14:28:04.967Z,13.70
2023-03-20T14:29:14.325Z,13.00
2023-03-20T14:30:33.172Z,13.90
2023-03-20T14:31:37.891Z,15.20
2023-03-20T14:34:08.892Z,18.10
2023-03-20T14:35:26.223Z,14.10
2023-03-20T14:36:32.027Z,13.00
2023-03-20T14:37:41.140Z,13.70
2023-03-20T14:39:06.774Z,12.80
2023-03-20T14:40:19.403Z,12.50
2023-03-20T14:41:30.968Z,12.40
2023-03-20T14:42:54.569Z,13.20
2023-03-20T14:44:12.528Z,13.30
2023-03-20T14:45:27.554Z,14.40
2023-03-20T14:46:54.496Z,11.30
2023-03-20T14:48:10.000Z,11.50
2023-03-20T16:03:57.632Z,30.90
2023-03-20T16:05:02.151Z,30.30
2023-03-20T16:06:08.467Z,28.00
2023-03-20T16:07:28.718Z,32.20
2023-03-20T16:08:33.606Z,32.50
2023-03-20T16:09:44.291Z,33.60
2023-03-20T16:10:46.764Z,32.60
2023-03-20T16:13:05.865Z,33.50
2023-03-20T16:14:12.786Z,34.60
2023-03-20T16:15:18.612Z,34.00
2023-03-20T16:16:25.663Z,32.60
2023-03-20T16:17:29.868Z,34.40
2023-03-20T16:18:35.646Z,34.80
2023-03-20T16:19:39.353Z,32.40
2023-03-20T16:22:23.635Z,35.40
2023-03-20T16:23:38.274Z,30.70
2023-03-20T16:24:45.901Z,35.80
2023-03-20T16:25:55.443Z,33.00
2023-03-20T16:26:58.572Z,31.80
2023-03-20T16:28:04.876Z,20.18
2023-03-20T16:29:09.294Z,33.40
2023-03-20T16:30:16.089Z,33.80
2023-03-20T16:31:37.544Z,32.40
2023-03-20T16:32:46.808Z,33.00
2023-03-20T16:34:05.569Z,32.50
2023-03-20T16:35:22.654Z,30.20
2023-03-20T16:36:35.096Z,31.70
2023-03-20T16:37:44.920Z,32.30
2023-03-20T16:38:58.630Z,32.00
2023-03-20T16:40:03.938Z,33.10
2023-03-20T16:41:43.769Z,30.60
2023-03-20T16:42:46.588Z,30.60
2023-03-20T16:43:50.430Z,33.36
2023-03-20T16:46:15.220Z,32.80
2023-03-20T16:47:23.053Z,35.50
2023-03-20T16:48:33.863Z,34.50
2023-03-20T16:51:23.723Z,33.70
2023-03-20T16:52:32.442Z,32.70
2023-03-20T16:55:19.657Z,36.20
2023-03-20T16:56:34.752Z,33.10
2023-03-20T16:57:39.305Z,31.50
2023-03-20T16:58:45.274Z,32.20
2023-03-20T16:59:48.017Z,30.10
2023-03-20T17:00:55.171Z,31.90
2023-03-20T17:02:02.030Z,32.70
2023-03-20T17:03:18.543Z,31.50
2023-03-20T17:04:30.045Z,31.60
2023-03-20T17:06:55.218Z,35.40
2023-03-20T17:08:01.036Z,32.40
2023-03-20T17:09:16.277Z,33.30
2023-03-20T17:10:24.984Z,35.50
2023-03-20T17:11:34.256Z,36.00
2023-03-20T17:13:42.330Z,41.70
2023-03-20T17:14:44.784Z,38.10
2023-03-20T17:15:46.975Z,39.00
2023-03-20T17:16:51.975Z,37.90
2023-03-20T17:17:54.757Z,40.00
2023-03-20T17:20:25.200Z,34.40
2023-03-20T17:21:30.077Z,36.50
2023-03-20T17:22:34.736Z,35.00
2023-03-20T17:23:38.600Z,33.50
2023-03-20T17:24:41.394Z,35.00
2023-03-20T17:25:43.561Z,34.20
2023-03-20T17:26:51.722Z,32.20
2023-03-20T17:27:54.509Z,34.80
2023-03-20T17:28:58.133Z,32.45
2023-03-20T17:30:03.574Z,32.30
2023-03-20T17:31:10.806Z,32.10
2023-03-20T17:32:20.808Z,31.50
2023-03-20T17:33:24.663Z,31.90
2023-03-20T17:34:27.490Z,25.10
2023-03-20T17:35:30.754Z,29.91
2023-03-20T17:36:35.534Z,29.30
2023-03-20T17:37:38.480Z,26.70
2023-03-20T17:38:41.170Z,29.00